Time;durP1;ratioP1;P1;durP2;ratioP2;P2;SDS_P1;SDS_P2;PMS_P1;PMS_P2;Temp;Humidity;BMP_temperature;BMP_pressure;BME280_temperature;BME280_humidity;BME280_pressure;Samples;Min_cycle;Max_cycle;Signal;HPM_P1;HPM_P2
2023/12/09 00:01:07;;;;;;;13.83;7.20;;;4.50;99.90;;;;;;5005211;28;20515;-63
2023/12/09 00:03:32;;;;;;;16.30;8.23;;;4.50;99.90;;;;;;4988162;28;20527;-62
2023/12/09 00:05:58;;;;;;;13.50;7.93;;;4.50;99.90;;;;;;5012658;28;20175;-63
2023/12/09 00:08:24;;;;;;;14.27;7.47;;;4.50;99.90;;;;;;5011816;28;20207;-63
2023/12/09 00:10:49;;;;;;;18.90;7.30;;;4.60;99.90;;;;;;5012684;28;20554;-63
2023/12/09 00:13:15;;;;;;;16.67;7.37;;;4.50;99.90;;;;;;5002024;28;20215;-63
2023/12/09 00:15:40;;;;;;;20.30;7.80;;;4.50;99.90;;;;;;5012882;28;20575;-62
2023/12/09 00:18:06;;;;;;;23.07;8.10;;;4.50;99.90;;;;;;5002030;28;20191;-63
2023/12/09 00:20:31;;;;;;;19.13;6.30;;;4.50;99.90;;;;;;5012281;28;20189;-63
2023/12/09 00:22:57;;;;;;;13.40;7.60;;;4.50;99.90;;;;;;5013789;28;20553;-63
2023/12/09 00:25:22;;;;;;;17.70;8.40;;;4.50;99.90;;;;;;4994432;28;20184;-63
2023/12/09 00:27:48;;;;;;;18.10;6.27;;;4.40;99.90;;;;;;4993648;28;20203;-63
2023/12/09 00:30:14;;;;;;;20.93;8.30;;;4.40;99.90;;;;;;4992738;28;20219;-62
2023/12/09 00:32:39;;;;;;;18.73;7.53;;;4.50;99.90;;;;;;4994111;28;20203;-62
2023/12/09 00:35:05;;;;;;;18.23;8.37;;;4.40;99.90;;;;;;5007181;28;20262;-63
2023/12/09 00:37:31;;;;;;;11.47;6.70;;;4.30;99.90;;;;;;4993605;28;20190;-58
2023/12/09 00:39:56;;;;;;;16.90;7.30;;;4.30;99.90;;;;;;4993263;28;20180;-59
2023/12/09 00:42:22;;;;;;;13.63;7.47;;;4.30;99.90;;;;;;4993727;28;20519;-62
2023/12/09 00:44:48;;;;;;;17.20;6.73;;;4.30;99.90;;;;;;4993249;28;20259;-62
2023/12/09 00:47:13;;;;;;;14.43;6.43;;;4.30;99.90;;;;;;4993764;28;20652;-62
2023/12/09 00:49:39;;;;;;;11.70;6.47;;;4.30;99.90;;;;;;5010280;28;20466;-63
2023/12/09 00:52:05;;;;;;;15.87;7.10;;;4.40;99.90;;;;;;5012983;28;20215;-63
2023/12/09 00:54:30;;;;;;;13.17;6.90;;;4.40;99.90;;;;;;5009201;28;20187;-63
2023/12/09 00:56:55;;;;;;;10.90;6.30;;;4.40;99.90;;;;;;5002556;28;20183;-63
2023/12/09 00:59:21;;;;;;;14.60;6.90;;;4.40;99.90;;;;;;5009377;28;20210;-62
2023/12/09 01:01:47;;;;;;;12.10;6.00;;;4.40;99.90;;;;;;5002671;28;20199;-58
2023/12/09 01:04:13;;;;;;;14.10;6.83;;;4.40;99.90;;;;;;4992656;28;20183;-59
2023/12/09 01:06:38;;;;;;;12.50;6.17;;;4.50;99.90;;;;;;5003274;28;20188;-62
2023/12/09 01:09:04;;;;;;;10.53;5.73;;;4.60;99.90;;;;;;4997373;28;20433;-63
2023/12/09 01:11:29;;;;;;;13.57;6.47;;;4.60;99.90;;;;;;5001696;28;20179;-63
2023/12/09 01:13:55;;;;;;;12.67;6.67;;;4.60;99.90;;;;;;4991513;28;20215;-62
2023/12/09 01:16:20;;;;;;;13.83;6.27;;;4.60;99.90;;;;;;4992471;28;20199;-62
2023/12/09 01:18:45;;;;;;;15.50;6.17;;;4.70;99.90;;;;;;5004865;28;20183;-62
2023/12/09 01:21:11;;;;;;;9.20;4.80;;;4.70;99.90;;;;;;5002293;28;20199;-62
2023/12/09 01:23:38;;;;;;;23.03;6.70;;;4.70;99.90;;;;;;4996346;28;20269;-62
2023/12/09 01:26:03;;;;;;;11.57;5.93;;;4.70;99.90;;;;;;5001993;28;20204;-62
2023/12/09 01:28:29;;;;;;;13.50;5.23;;;4.60;99.90;;;;;;5009714;28;20446;-62
2023/12/09 01:30:54;;;;;;;16.90;6.50;;;4.60;99.90;;;;;;5001941;28;20553;-63
2023/12/09 01:33:20;;;;;;;8.60;5.30;;;4.70;99.90;;;;;;5006004;28;20562;-63
2023/12/09 01:35:46;;;;;;;10.00;5.50;;;4.60;99.90;;;;;;5002631;28;20273;-62
2023/12/09 01:38:11;;;;;;;9.47;5.77;;;4.60;99.90;;;;;;5000071;28;20180;-62
2023/12/09 01:40:37;;;;;;;11.80;5.83;;;4.70;99.90;;;;;;4992540;28;20419;-59
2023/12/09 01:43:09;;;;;;;10.50;5.60;;;4.70;99.90;;;;;;5005238;28;20691;-59
2023/12/09 01:45:34;;;;;;;18.07;6.00;;;4.70;99.90;;;;;;4991333;28;20187;-62
2023/12/09 01:48:01;;;;;;;25.43;6.80;;;4.70;99.90;;;;;;4996337;28;20438;-62
2023/12/09 01:50:27;;;;;;;12.67;6.07;;;4.80;99.90;;;;;;5002073;28;20254;-63
2023/12/09 01:52:53;;;;;;;12.73;5.43;;;4.80;99.90;;;;;;4996134;28;20485;-63
2023/12/09 01:55:19;;;;;;;11.23;6.10;;;4.80;99.90;;;;;;5011968;28;20433;-63
2023/12/09 01:57:45;;;;;;;10.07;5.83;;;4.80;99.90;;;;;;5011970;28;20191;-63
2023/12/09 02:00:11;;;;;;;10.97;6.30;;;4.90;99.90;;;;;;5001780;28;20283;-62
2023/12/09 02:02:36;;;;;;;12.20;6.17;;;4.90;99.90;;;;;;4995513;28;20604;-62
2023/12/09 02:05:03;;;;;;;12.47;5.20;;;4.90;99.90;;;;;;5012221;28;20429;-62
2023/12/09 02:07:28;;;;;;;12.57;6.43;;;4.90;99.90;;;;;;4995313;28;20234;-62
2023/12/09 02:09:54;;;;;;;8.77;4.83;;;4.90;99.90;;;;;;4992384;28;20434;-62
2023/12/09 02:12:31;;;;;;;8.87;5.03;;;4.90;99.90;;;;;;4992122;28;20211;-62
2023/12/09 02:15:07;;;;;;;13.07;5.63;;;4.90;99.90;;;;;;4994189;28;20196;-62
2023/12/09 02:17:57;;;;;;;9.80;5.57;;;4.80;99.90;;;;;;4992387;28;20458;-63
2023/12/09 02:20:23;;;;;;;13.03;5.90;;;4.80;99.90;;;;;;4995030;28;20955;-63
2023/12/09 02:22:49;;;;;;;8.57;5.27;;;4.80;99.90;;;;;;4994599;28;20439;-63
2023/12/09 02:25:14;;;;;;;8.90;4.90;;;4.80;99.90;;;;;;5008937;28;20781;-63
2023/12/09 02:27:53;;;;;;;11.17;5.13;;;4.70;99.90;;;;;;4996244;28;20196;-62
2023/12/09 02:30:36;;;;;;;13.13;6.50;;;4.70;99.90;;;;;;4995583;28;20677;-63
2023/12/09 02:33:04;;;;;;;22.93;7.10;;;4.70;99.90;;;;;;5009048;28;20462;-63
2023/12/09 02:35:35;;;;;;;11.60;5.53;;;4.80;99.90;;;;;;5002108;28;20744;-63
2023/12/09 02:38:02;;;;;;;13.87;5.20;;;4.80;99.90;;;;;;5011309;28;20886;-61
2023/12/09 02:40:29;;;;;;;13.50;5.83;;;4.80;99.90;;;;;;4995700;28;20454;-60
2023/12/09 02:42:55;;;;;;;11.10;4.23;;;4.80;99.90;;;;;;5009019;28;20435;-61
2023/12/09 02:45:21;;;;;;;9.50;2.93;;;4.90;99.90;;;;;;4995402;28;20505;-62
2023/12/09 02:47:47;;;;;;;9.73;4.33;;;4.90;99.90;;;;;;4982908;28;21269;-61
2023/12/09 02:50:13;;;;;;;11.27;4.03;;;5.00;99.90;;;;;;4994467;28;20722;-61
2023/12/09 02:52:40;;;;;;;8.10;4.50;;;5.00;99.90;;;;;;4997251;28;20475;-61
2023/12/09 02:55:06;;;;;;;10.10;3.90;;;5.00;99.90;;;;;;5006976;28;20203;-61
2023/12/09 02:57:32;;;;;;;16.70;3.50;;;5.00;99.90;;;;;;5008689;28;20418;-61
2023/12/09 02:59:57;;;;;;;16.57;4.37;;;4.90;99.90;;;;;;5003494;28;20434;-61
2023/12/09 03:02:23;;;;;;;10.13;5.23;;;4.90;99.90;;;;;;5000753;28;20187;-61
2023/12/09 03:04:48;;;;;;;10.63;4.20;;;4.80;99.90;;;;;;5003574;28;20187;-61
2023/12/09 03:07:14;;;;;;;11.77;4.57;;;4.80;99.90;;;;;;5010945;28;20293;-61
2023/12/09 03:09:39;;;;;;;9.13;4.00;;;4.70;99.90;;;;;;5003201;28;20230;-61
2023/12/09 03:12:05;;;;;;;7.43;3.23;;;4.60;99.90;;;;;;5014485;28;20229;-62
2023/12/09 03:14:31;;;;;;;7.33;4.10;;;4.60;99.90;;;;;;4997669;28;20184;-61
2023/12/09 03:16:56;;;;;;;5.67;3.63;;;4.60;99.90;;;;;;4995815;28;20238;-61
2023/12/09 03:19:22;;;;;;;8.13;4.13;;;4.50;99.90;;;;;;5008619;28;20218;-61
2023/12/09 03:21:47;;;;;;;17.03;4.10;;;4.50;99.90;;;;;;5002068;28;20192;-62
2023/12/09 03:24:12;;;;;;;14.03;4.87;;;4.40;99.90;;;;;;4995435;28;20188;-62
2023/12/09 03:26:38;;;;;;;9.33;4.07;;;4.30;99.90;;;;;;4995188;28;20194;-62
2023/12/09 03:29:03;;;;;;;6.60;3.80;;;4.30;99.90;;;;;;4994426;28;20547;-62
2023/12/09 03:31:29;;;;;;;7.00;3.50;;;4.30;99.90;;;;;;5002854;28;20195;-62
2023/12/09 03:33:54;;;;;;;9.73;3.77;;;4.30;99.90;;;;;;5001091;28;20214;-61
2023/12/09 03:36:20;;;;;;;7.60;3.27;;;4.20;99.90;;;;;;5001269;28;20207;-58
2023/12/09 03:38:45;;;;;;;11.37;3.70;;;4.20;99.90;;;;;;4994295;28;20199;-58
2023/12/09 03:41:11;;;;;;;9.77;4.10;;;4.20;99.90;;;;;;5006842;28;20187;-57
2023/12/09 03:43:36;;;;;;;25.37;3.83;;;4.30;99.90;;;;;;5000238;28;20313;-57
2023/12/09 03:46:02;;;;;;;7.80;4.27;;;4.30;99.90;;;;;;5000220;28;20183;-64
2023/12/09 03:48:29;;;;;;;9.07;3.67;;;4.30;99.90;;;;;;4994630;28;20233;-61
2023/12/09 03:50:55;;;;;;;8.57;3.90;;;4.30;99.90;;;;;;5008562;28;20193;-61
2023/12/09 03:53:21;;;;;;;13.10;4.00;;;4.50;99.90;;;;;;5009071;28;20479;-61
2023/12/09 03:55:48;;;;;;;8.60;3.83;;;4.30;99.90;;;;;;5008433;28;21038;-62
2023/12/09 03:58:13;;;;;;;11.67;3.70;;;4.30;99.90;;;;;;5006913;28;20195;-61
2023/12/09 04:00:39;;;;;;;8.13;2.77;;;4.20;99.90;;;;;;4994381;28;20952;-61
2023/12/09 04:03:05;;;;;;;3.87;2.63;;;4.20;99.90;;;;;;4993837;28;20203;-61
2023/12/09 04:05:31;;;;;;;4.70;3.20;;;4.20;99.90;;;;;;4993768;28;20438;-61
2023/12/09 04:07:56;;;;;;;7.53;3.33;;;4.20;99.90;;;;;;4984833;28;20458;-61
2023/12/09 04:10:22;;;;;;;10.67;3.50;;;4.30;99.90;;;;;;4995657;28;20253;-61
2023/12/09 04:12:47;;;;;;;9.43;3.70;;;4.30;99.90;;;;;;4994052;28;20246;-61
2023/12/09 04:15:13;;;;;;;8.20;3.37;;;4.30;99.90;;;;;;5007429;28;20183;-57
2023/12/09 04:17:38;;;;;;;11.57;3.93;;;4.40;99.90;;;;;;5006156;28;20262;-58
2023/12/09 04:20:08;;;;;;;5.70;3.00;;;4.40;99.90;;;;;;4993603;28;20195;-58
2023/12/09 04:22:37;;;;;;;9.93;3.80;;;4.50;99.90;;;;;;4994202;28;20228;-61
2023/12/09 04:25:04;;;;;;;9.60;3.30;;;4.50;99.90;;;;;;5006634;28;20430;-61
2023/12/09 04:27:31;;;;;;;4.00;2.50;;;4.50;99.90;;;;;;5002351;28;20430;-61
2023/12/09 04:29:57;;;;;;;4.47;2.67;;;4.50;99.90;;;;;;4999842;28;20431;-61
2023/12/09 04:32:23;;;;;;;6.00;2.67;;;4.50;99.90;;;;;;5002945;28;20474;-61
2023/12/09 04:34:49;;;;;;;13.10;3.67;;;4.60;99.90;;;;;;5006772;28;20437;-61
2023/12/09 04:37:14;;;;;;;5.40;2.50;;;4.50;99.90;;;;;;4993956;28;20184;-61
2023/12/09 04:39:39;;;;;;;8.27;2.53;;;4.50;99.90;;;;;;5006470;28;20627;-61
2023/12/09 04:42:05;;;;;;;4.40;2.07;;;4.50;99.90;;;;;;5001560;28;20309;-61
2023/12/09 04:44:30;;;;;;;6.40;2.70;;;4.40;99.90;;;;;;5011071;28;20679;-61
2023/12/09 04:46:56;;;;;;;6.10;2.70;;;4.50;99.90;;;;;;4992769;28;20942;-61
2023/12/09 04:49:21;;;;;;;7.13;2.83;;;4.40;99.90;;;;;;5006247;28;20306;-61
2023/12/09 04:51:47;;;;;;;6.93;2.90;;;4.40;99.90;;;;;;4993100;28;20203;-57
2023/12/09 04:54:12;;;;;;;7.13;2.60;;;4.40;99.90;;;;;;5005737;28;20317;-57
2023/12/09 04:56:38;;;;;;;6.90;3.57;;;4.40;99.90;;;;;;4993312;28;20211;-61
2023/12/09 04:59:04;;;;;;;4.83;2.27;;;4.40;99.90;;;;;;5006445;28;20568;-61
2023/12/09 05:01:29;;;;;;;5.57;2.57;;;4.40;99.90;;;;;;5010801;28;20197;-61
2023/12/09 05:03:55;;;;;;;2.90;1.70;;;4.40;99.90;;;;;;5006689;28;20180;-61
2023/12/09 05:06:20;;;;;;;5.03;2.40;;;4.40;99.90;;;;;;5013019;28;20640;-61
2023/12/09 05:08:46;;;;;;;15.33;3.27;;;4.40;99.90;;;;;;5007117;28;20183;-61
2023/12/09 05:11:11;;;;;;;8.37;3.17;;;4.30;99.90;;;;;;5012829;28;20202;-61
2023/12/09 05:13:37;;;;;;;4.90;2.23;;;4.40;99.90;;;;;;4999322;28;20268;-61
2023/12/09 05:16:03;;;;;;;4.93;2.33;;;4.40;99.90;;;;;;5006499;28;20176;-62
2023/12/09 05:18:29;;;;;;;8.73;2.67;;;4.40;99.90;;;;;;5006380;28;20820;-61
2023/12/09 05:20:54;;;;;;;4.50;2.37;;;4.40;99.90;;;;;;4993717;28;20180;-61
2023/12/09 05:23:20;;;;;;;4.90;2.03;;;4.40;99.90;;;;;;4993177;28;20438;-61
2023/12/09 05:25:46;;;;;;;8.30;2.73;;;4.40;99.90;;;;;;5006039;28;20184;-61
2023/12/09 05:28:11;;;;;;;6.63;2.03;;;4.40;99.90;;;;;;5005678;28;20549;-62
2023/12/09 05:30:37;;;;;;;4.00;2.10;;;4.30;99.90;;;;;;4998867;28;20442;-62
2023/12/09 05:33:03;;;;;;;3.27;2.00;;;4.30;99.90;;;;;;4998498;28;20342;-62
2023/12/09 05:35:29;;;;;;;6.30;1.60;;;4.40;99.90;;;;;;4998968;28;20175;-58
2023/12/09 05:37:54;;;;;;;3.53;2.13;;;4.40;99.90;;;;;;4999669;28;21026;-58
2023/12/09 05:40:20;;;;;;;6.23;2.00;;;4.50;99.90;;;;;;4992118;28;20179;-61
2023/12/09 05:42:46;;;;;;;2.47;1.53;;;4.50;99.90;;;;;;4992159;28;20314;-62
2023/12/09 05:45:12;;;;;;;2.97;1.20;;;4.40;99.90;;;;;;5004425;28;20176;-62
2023/12/09 05:47:37;;;;;;;5.33;2.00;;;4.40;99.90;;;;;;5006047;28;20429;-62
2023/12/09 05:50:03;;;;;;;12.80;2.33;;;4.40;99.90;;;;;;4999259;28;20231;-62
2023/12/09 05:52:28;;;;;;;6.30;2.43;;;4.30;99.90;;;;;;5012018;28;20208;-62
2023/12/09 05:54:54;;;;;;;3.33;1.67;;;4.40;99.90;;;;;;4992819;28;20680;-62
2023/12/09 05:57:19;;;;;;;3.20;1.53;;;4.30;99.90;;;;;;4992808;28;20195;-62
2023/12/09 05:59:45;;;;;;;3.47;1.60;;;4.30;99.90;;;;;;5001539;28;20206;-62
2023/12/09 06:02:10;;;;;;;4.53;2.00;;;4.30;99.90;;;;;;5016476;28;20202;-62
2023/12/09 06:04:37;;;;;;;4.33;1.93;;;4.30;99.90;;;;;;5016352;28;20214;-62
2023/12/09 06:07:02;;;;;;;6.23;2.50;;;4.20;99.90;;;;;;5013697;28;20179;-62
2023/12/09 06:09:28;;;;;;;6.53;2.43;;;4.20;99.90;;;;;;5007989;28;20848;-62
2023/12/09 06:11:54;;;;;;;7.50;1.90;;;4.20;99.90;;;;;;4996316;28;20183;-62
2023/12/09 06:14:19;;;;;;;7.20;2.57;;;4.20;99.90;;;;;;5008007;28;20193;-62
2023/12/09 06:16:45;;;;;;;4.77;2.30;;;4.30;99.90;;;;;;5003663;28;20650;-62
2023/12/09 06:19:10;;;;;;;5.33;2.20;;;4.30;99.90;;;;;;4996554;28;20222;-62
2023/12/09 06:21:36;;;;;;;6.73;1.97;;;4.30;99.90;;;;;;4996814;28;20191;-62
2023/12/09 06:24:01;;;;;;;4.60;1.70;;;4.30;99.90;;;;;;5009467;28;20191;-62
2023/12/09 06:26:27;;;;;;;8.50;1.50;;;4.30;99.90;;;;;;5008895;28;20197;-62
2023/12/09 06:28:52;;;;;;;5.83;2.30;;;4.30;99.90;;;;;;5001833;28;20191;-62
2023/12/09 06:31:18;;;;;;;4.80;1.90;;;4.30;99.90;;;;;;5015847;28;20223;-62
2023/12/09 06:33:43;;;;;;;3.67;1.70;;;4.30;99.90;;;;;;4997235;28;20672;-62
2023/12/09 06:36:09;;;;;;;3.60;1.60;;;4.30;99.90;;;;;;5007522;28;20591;-62
2023/12/09 06:38:39;;;;;;;3.37;1.43;;;4.30;99.90;;;;;;5000577;28;20287;-62
2023/12/09 06:41:05;;;;;;;4.00;1.60;;;4.30;99.90;;;;;;4995893;28;20739;-58
2023/12/09 06:43:31;;;;;;;8.93;2.40;;;4.30;99.90;;;;;;5013372;28;20425;-58
2023/12/09 06:45:58;;;;;;;5.07;2.27;;;4.30;99.90;;;;;;5001298;28;20230;-61
2023/12/09 06:48:23;;;;;;;5.30;1.53;;;4.30;99.90;;;;;;5002008;28;20817;-62
2023/12/09 06:50:49;;;;;;;4.93;2.20;;;4.30;99.90;;;;;;5015291;28;20913;-62
2023/12/09 06:53:14;;;;;;;7.20;2.37;;;4.40;99.90;;;;;;5008645;28;20222;-62
2023/12/09 06:55:40;;;;;;;2.93;1.73;;;4.40;99.90;;;;;;4995969;28;20668;-62
2023/12/09 06:58:06;;;;;;;4.70;1.83;;;4.30;99.90;;;;;;4995504;28;20187;-62
2023/12/09 07:00:31;;;;;;;2.17;1.20;;;4.40;99.90;;;;;;4995489;28;20419;-61
2023/12/09 07:02:57;;;;;;;3.70;1.70;;;4.40;99.90;;;;;;5008651;28;20203;-62
2023/12/09 07:05:23;;;;;;;3.03;1.27;;;4.40;99.90;;;;;;4987907;28;20267;-58
2023/12/09 07:07:49;;;;;;;7.70;1.77;;;4.40;99.90;;;;;;5003587;28;20245;-58
2023/12/09 07:10:16;;;;;;;5.10;1.87;;;4.40;99.90;;;;;;4993886;28;20288;-61
2023/12/09 07:12:42;;;;;;;4.20;1.83;;;4.40;99.90;;;;;;5001199;28;20800;-61
2023/12/09 07:15:08;;;;;;;4.90;1.53;;;4.40;99.90;;;;;;5001692;28;20967;-61
2023/12/09 07:17:34;;;;;;;3.63;2.13;;;4.50;99.90;;;;;;5014438;28;20529;-61
2023/12/09 07:19:59;;;;;;;5.47;2.30;;;4.50;99.90;;;;;;5002586;28;20223;-61
2023/12/09 07:22:25;;;;;;;7.13;2.40;;;4.50;99.90;;;;;;4994922;28;20218;-58
2023/12/09 07:24:51;;;;;;;6.27;2.30;;;4.50;99.90;;;;;;4995587;28;20199;-58
2023/12/09 07:27:16;;;;;;;4.50;1.90;;;4.60;99.90;;;;;;5000537;28;20195;-61
2023/12/09 07:29:42;;;;;;;3.73;2.67;;;4.60;99.90;;;;;;5013840;28;20195;-61
2023/12/09 07:32:07;;;;;;;4.20;2.10;;;4.60;99.90;;;;;;4995500;28;20219;-57
2023/12/09 07:34:33;;;;;;;8.03;1.97;;;4.60;99.90;;;;;;4987699;28;20183;-57
2023/12/09 07:36:58;;;;;;;10.37;2.47;;;4.60;99.90;;;;;;4993582;28;20255;-57
2023/12/09 07:39:23;;;;;;;7.40;3.00;;;4.70;99.90;;;;;;4992909;28;20184;-57
2023/12/09 07:41:51;;;;;;;8.03;3.10;;;4.60;99.90;;;;;;4994329;28;20478;-57
2023/12/09 07:44:17;;;;;;;7.07;2.03;;;4.70;99.90;;;;;;4987932;28;20244;-58
2023/12/09 07:46:43;;;;;;;4.17;2.10;;;4.60;99.90;;;;;;4980097;28;20430;-61
2023/12/09 07:49:08;;;;;;;5.13;2.50;;;4.60;99.90;;;;;;4975551;28;20463;-62
2023/12/09 07:51:35;;;;;;;6.47;2.50;;;4.60;99.90;;;;;;4997003;28;20188;-61
2023/12/09 07:54:00;;;;;;;3.03;1.83;;;4.60;99.90;;;;;;5007586;28;20251;-61
2023/12/09 07:56:26;;;;;;;4.87;2.23;;;4.70;99.90;;;;;;4994349;28;20485;-61
2023/12/09 07:58:51;;;;;;;11.77;2.90;;;4.70;99.90;;;;;;4993593;28;20211;-61
2023/12/09 08:01:17;;;;;;;11.67;3.10;;;4.70;99.90;;;;;;5007421;28;20179;-61
2023/12/09 08:03:43;;;;;;;5.80;2.80;;;4.70;99.90;;;;;;4994187;28;20419;-61
2023/12/09 08:06:08;;;;;;;4.90;2.20;;;4.80;99.90;;;;;;5007415;28;20451;-61
2023/12/09 08:08:35;;;;;;;7.43;1.87;;;4.80;99.90;;;;;;4993212;28;20196;-61
2023/12/09 08:11:01;;;;;;;4.70;2.50;;;4.80;99.90;;;;;;4989559;28;21101;-61
2023/12/09 08:13:26;;;;;;;3.53;2.07;;;4.90;99.90;;;;;;4994598;28;21248;-61
2023/12/09 08:15:52;;;;;;;3.20;1.63;;;4.90;99.90;;;;;;5004351;28;20435;-61
2023/12/09 08:18:17;;;;;;;8.70;2.80;;;4.90;99.90;;;;;;4989627;28;20314;-62
2023/12/09 08:20:43;;;;;;;7.17;1.73;;;4.90;99.90;;;;;;4991743;28;20605;-56
2023/12/09 08:23:08;;;;;;;4.50;2.30;;;4.80;99.90;;;;;;4993206;28;20191;-57
2023/12/09 08:25:34;;;;;;;6.13;1.90;;;4.90;99.90;;;;;;4992899;28;20192;-61
2023/12/09 08:27:59;;;;;;;7.73;2.50;;;4.90;99.90;;;;;;4994440;28;20625;-62
2023/12/09 08:30:25;;;;;;;4.17;2.10;;;5.00;99.90;;;;;;5007022;28;20652;-62
2023/12/09 08:32:50;;;;;;;3.83;2.13;;;4.90;99.90;;;;;;5006337;28;20198;-63
2023/12/09 08:35:16;;;;;;;4.63;2.03;;;5.00;99.90;;;;;;4994675;28;20182;-62
2023/12/09 08:37:41;;;;;;;3.33;1.70;;;5.00;99.90;;;;;;4996975;28;20194;-62
2023/12/09 08:40:13;;;;;;;8.27;2.90;;;5.10;99.90;;;;;;4988719;28;20196;-63
2023/12/09 08:42:40;;;;;;;8.57;2.97;;;5.00;99.90;;;;;;4984891;28;20294;-63
2023/12/09 08:45:09;;;;;;;7.53;2.70;;;5.00;99.90;;;;;;4992290;28;20426;-63
2023/12/09 08:47:36;;;;;;;3.03;1.70;;;5.00;99.90;;;;;;4988776;28;20742;-58
2023/12/09 08:50:04;;;;;;;8.20;1.70;;;5.00;99.90;;;;;;4993067;28;20514;-58
2023/12/09 08:52:29;;;;;;;6.20;2.40;;;5.00;99.90;;;;;;4992142;28;20463;-58
2023/12/09 08:54:55;;;;;;;11.93;3.27;;;5.10;99.90;;;;;;4992749;28;20918;-58
2023/12/09 08:57:20;;;;;;;11.93;2.30;;;5.10;99.90;;;;;;4994104;28;20191;-63
2023/12/09 08:59:46;;;;;;;6.57;2.37;;;5.20;99.90;;;;;;4995097;28;20636;-63
2023/12/09 09:02:11;;;;;;;15.43;3.70;;;5.30;99.90;;;;;;5006853;28;20190;-63
2023/12/09 09:04:37;;;;;;;13.20;4.37;;;5.40;99.90;;;;;;5005870;28;20196;-62
2023/12/09 09:07:02;;;;;;;9.20;4.57;;;5.50;99.90;;;;;;5004443;28;20198;-63
2023/12/09 09:09:28;;;;;;;8.20;3.30;;;5.60;99.90;;;;;;5011257;28;20202;-62
2023/12/09 09:11:53;;;;;;;9.10;2.50;;;5.60;99.90;;;;;;4999015;28;20641;-58
2023/12/09 09:14:19;;;;;;;3.30;2.20;;;5.70;99.90;;;;;;4991786;28;20208;-58
2023/12/09 09:16:44;;;;;;;3.20;2.23;;;5.70;99.90;;;;;;4992176;28;20675;-63
2023/12/09 09:19:10;;;;;;;7.83;2.30;;;5.80;99.90;;;;;;4999675;28;20191;-63
2023/12/09 09:21:35;;;;;;;5.10;2.83;;;5.80;99.90;;;;;;5012838;28;20490;-62
2023/12/09 09:24:01;;;;;;;4.37;1.80;;;5.80;99.90;;;;;;4993113;28;20206;-61
2023/12/09 09:26:26;;;;;;;8.97;2.70;;;5.80;99.90;;;;;;4992710;28;20222;-61
2023/12/09 09:28:52;;;;;;;4.70;1.57;;;5.80;99.90;;;;;;4991863;28;20187;-61
2023/12/09 09:31:17;;;;;;;4.07;2.30;;;5.80;99.90;;;;;;5005822;28;20685;-58
2023/12/09 09:33:43;;;;;;;4.07;1.93;;;5.80;99.90;;;;;;4994649;28;20218;-58
2023/12/09 09:36:09;;;;;;;8.03;2.20;;;5.90;99.90;;;;;;4987528;28;20613;-57
2023/12/09 09:38:34;;;;;;;8.20;2.73;;;5.80;99.90;;;;;;4970085;28;20306;-58
2023/12/09 09:41:06;;;;;;;5.73;2.47;;;5.80;99.90;;;;;;4992431;28;20222;-58
2023/12/09 09:43:37;;;;;;;6.13;1.87;;;5.80;99.90;;;;;;4989084;28;20195;-58
2023/12/09 09:46:03;;;;;;;6.37;2.40;;;5.90;99.90;;;;;;4986754;28;20431;-58
2023/12/09 09:48:34;;;;;;;5.37;1.87;;;5.90;99.90;;;;;;4991941;28;20525;-57
2023/12/09 09:51:02;;;;;;;2.33;1.03;;;5.90;99.90;;;;;;4993905;28;20423;-62
2023/12/09 09:53:46;;;;;;;3.37;2.03;;;5.90;99.90;;;;;;5003372;28;20482;-62
2023/12/09 09:56:12;;;;;;;6.23;2.13;;;6.00;99.90;;;;;;4996460;28;20426;-62
2023/12/09 09:58:38;;;;;;;6.80;2.10;;;6.10;99.90;;;;;;4993757;28;20430;-62
2023/12/09 10:01:04;;;;;;;8.77;2.10;;;6.20;99.90;;;;;;4994786;28;20790;-62
2023/12/09 10:03:30;;;;;;;2.90;1.53;;;6.30;99.90;;;;;;5003202;28;20278;-63
2023/12/09 10:05:57;;;;;;;2.77;1.87;;;6.30;99.90;;;;;;4996643;28;20513;-63
2023/12/09 10:08:23;;;;;;;5.40;1.63;;;6.40;99.90;;;;;;4995460;28;20181;-62
2023/12/09 10:10:49;;;;;;;5.97;1.80;;;6.30;99.90;;;;;;5004999;28;20816;-62
2023/12/09 10:13:14;;;;;;;3.60;1.70;;;6.40;99.90;;;;;;4990863;28;20836;-62
2023/12/09 10:15:40;;;;;;;4.20;2.30;;;6.40;99.90;;;;;;5010610;28;20786;-61
2023/12/09 10:18:08;;;;;;;3.53;2.23;;;6.40;99.90;;;;;;4995484;28;20199;-62
2023/12/09 10:20:35;;;;;;;3.63;2.10;;;6.40;99.90;;;;;;4992001;28;20180;-62
2023/12/09 10:23:00;;;;;;;3.03;1.67;;;6.30;99.90;;;;;;4992354;28;20919;-62
2023/12/09 10:25:26;;;;;;;15.10;2.40;;;6.30;99.90;;;;;;4992128;28;20573;-62
2023/12/09 10:27:51;;;;;;;2.73;1.50;;;6.30;99.90;;;;;;5003669;28;20189;-62
2023/12/09 10:30:18;;;;;;;5.63;1.87;;;6.20;99.90;;;;;;5006513;28;20192;-62
2023/12/09 10:32:45;;;;;;;2.10;1.53;;;6.20;99.90;;;;;;4992233;28;20649;-62
2023/12/09 10:35:10;;;;;;;3.13;2.07;;;6.30;99.90;;;;;;4991680;28;20429;-62
2023/12/09 10:37:36;;;;;;;2.40;1.50;;;6.20;99.90;;;;;;4995958;28;20415;-62
2023/12/09 10:40:06;;;;;;;2.97;1.47;;;6.10;99.90;;;;;;4992133;28;20184;-62
2023/12/09 10:42:32;;;;;;;3.77;1.70;;;6.30;99.90;;;;;;5004128;28;20206;-63
2023/12/09 10:44:57;;;;;;;4.43;2.00;;;6.40;99.90;;;;;;4994399;28;20996;-62
2023/12/09 10:47:25;;;;;;;9.97;2.40;;;6.40;99.90;;;;;;5007426;28;20183;-63
2023/12/09 10:49:51;;;;;;;5.53;1.93;;;6.30;99.90;;;;;;4996819;28;20285;-62
2023/12/09 10:52:17;;;;;;;2.50;1.87;;;6.40;99.90;;;;;;5007380;28;20428;-62
2023/12/09 10:54:42;;;;;;;2.93;1.70;;;6.40;99.90;;;;;;5001886;28;20467;-62
2023/12/09 10:57:08;;;;;;;7.87;2.50;;;6.40;99.90;;;;;;5003822;28;20219;-62
2023/12/09 10:59:34;;;;;;;4.50;2.23;;;6.20;99.90;;;;;;4994702;28;20188;-62
2023/12/09 11:02:01;;;;;;;7.63;2.30;;;6.30;99.90;;;;;;4995521;28;20703;-63
2023/12/09 11:04:26;;;;;;;5.00;2.80;;;6.40;99.90;;;;;;4995090;28;20415;-62
2023/12/09 11:06:58;;;;;;;7.00;2.07;;;6.40;99.90;;;;;;4994944;28;20481;-63
2023/12/09 11:09:24;;;;;;;7.77;3.07;;;6.40;99.90;;;;;;4995051;28;20184;-62
2023/12/09 11:11:51;;;;;;;4.50;2.50;;;6.60;99.90;;;;;;4994984;28;20746;-58
2023/12/09 11:14:16;;;;;;;6.40;2.93;;;6.50;99.90;;;;;;4996506;28;20462;-58
2023/12/09 11:16:43;;;;;;;4.97;2.80;;;6.50;99.90;;;;;;4995188;28;20430;-58
2023/12/09 11:19:15;;;;;;;4.63;2.20;;;6.50;99.90;;;;;;4994725;28;20710;-58
2023/12/09 11:21:44;;;;;;;4.20;1.90;;;6.40;99.90;;;;;;4995110;28;20753;-62
2023/12/09 11:24:11;;;;;;;8.70;2.60;;;6.60;99.90;;;;;;4982433;28;20521;-62
2023/12/09 11:26:40;;;;;;;6.53;2.63;;;6.50;99.90;;;;;;5008409;28;20480;-62
2023/12/09 11:29:07;;;;;;;7.63;2.27;;;6.50;99.90;;;;;;5001937;28;20426;-63
2023/12/09 11:31:44;;;;;;;3.60;1.67;;;6.50;99.90;;;;;;5000040;28;20501;-58
2023/12/09 11:34:17;;;;;;;2.83;1.50;;;6.40;99.90;;;;;;4994466;28;20462;-58
2023/12/09 11:36:45;;;;;;;4.80;2.17;;;6.50;99.90;;;;;;4994877;28;20419;-62
2023/12/09 11:39:18;;;;;;;3.63;1.07;;;6.40;99.90;;;;;;4994568;28;20422;-62
2023/12/09 11:41:44;;;;;;;8.10;2.10;;;6.30;99.90;;;;;;4994555;28;20535;-62
2023/12/09 11:44:11;;;;;;;4.53;1.70;;;6.40;99.90;;;;;;5006190;28;20997;-62
2023/12/09 11:46:38;;;;;;;3.53;1.83;;;6.30;99.90;;;;;;4995677;28;20958;-58
2023/12/09 11:49:05;;;;;;;3.20;1.83;;;6.30;99.90;;;;;;4994056;28;20470;-59
2023/12/09 11:51:33;;;;;;;2.80;1.43;;;6.30;99.90;;;;;;4999691;28;21294;-62
2023/12/09 11:54:01;;;;;;;3.17;1.97;;;6.30;99.90;;;;;;5001803;28;20474;-62
2023/12/09 11:56:28;;;;;;;3.93;1.40;;;6.40;99.90;;;;;;4993797;28;21178;-62
2023/12/09 11:58:54;;;;;;;3.83;1.67;;;6.40;99.90;;;;;;4993441;28;20909;-62
2023/12/09 12:01:20;;;;;;;7.50;2.00;;;6.50;99.90;;;;;;5007201;28;20423;-61
2023/12/09 12:03:47;;;;;;;2.57;1.37;;;6.50;99.90;;;;;;4994406;28;20439;-61
2023/12/09 12:06:16;;;;;;;4.87;1.90;;;6.50;99.90;;;;;;5013077;28;20512;-62
2023/12/09 12:08:46;;;;;;;3.33;1.30;;;6.50;99.90;;;;;;4997509;28;20434;-62
2023/12/09 12:11:13;;;;;;;4.53;1.40;;;6.50;99.90;;;;;;4988898;28;20425;-62
2023/12/09 12:13:40;;;;;;;3.00;1.67;;;6.50;99.90;;;;;;5001566;28;20578;-62
2023/12/09 12:16:06;;;;;;;3.20;1.33;;;6.60;99.90;;;;;;4993956;28;20739;-62
2023/12/09 12:18:32;;;;;;;2.90;1.37;;;6.50;99.90;;;;;;5007080;28;21114;-62
2023/12/09 12:20:58;;;;;;;3.93;1.33;;;6.60;99.90;;;;;;4993675;28;20465;-63
2023/12/09 12:23:23;;;;;;;2.73;1.90;;;6.70;99.90;;;;;;4994172;28;20501;-62
2023/12/09 12:25:50;;;;;;;3.37;1.40;;;6.70;99.90;;;;;;5000685;28;20183;-58
2023/12/09 12:28:16;;;;;;;2.90;1.40;;;6.60;99.90;;;;;;5003648;28;20184;-58
2023/12/09 12:30:42;;;;;;;1.93;1.10;;;6.70;99.90;;;;;;4993000;28;20434;-61
2023/12/09 12:33:08;;;;;;;1.70;1.03;;;6.70;99.90;;;;;;5007590;28;21131;-62
2023/12/09 12:35:33;;;;;;;2.87;1.10;;;6.70;99.90;;;;;;5005935;28;20423;-62
2023/12/09 12:37:59;;;;;;;7.03;1.40;;;6.80;99.90;;;;;;4997156;28;20211;-62
2023/12/09 12:40:26;;;;;;;3.00;1.20;;;6.80;99.90;;;;;;4989774;28;20283;-58
2023/12/09 12:42:52;;;;;;;3.20;1.50;;;6.80;99.90;;;;;;4993018;28;20263;-58
2023/12/09 12:45:19;;;;;;;3.83;1.77;;;6.80;99.90;;;;;;4992596;28;20462;-61
2023/12/09 12:47:45;;;;;;;3.10;1.37;;;6.70;99.90;;;;;;4994567;28;20430;-62
2023/12/09 12:50:11;;;;;;;2.90;1.20;;;6.70;99.90;;;;;;5005267;28;20458;-62